Aérodrome :
LOGIN :

S'inscrire | Disclaimer

   EN    FR    IT 

 










Légende :    VFR   VFR Marginal   IFR   IFR Intensif   IFR Très Intensif
Visi : 
Plafond : 
>= 8 km
>= 3000ft
5 à 8 km
1000 à 3000 ft
1500m à 5 km
500 à 1000 ft
800 à 1500m
200 à 500 ft
< 800m
< 200 ft
Symboles :   Orages  Brouillard  Fortes neiges  Fortes précipitations  Vent > 20 kt
SIGMETs :   Divers  Orages  Givrage  Turbulence  Onde Orograph.  Cendres Volcan.







- Altitude de l'aérodrome : 39 ft
- Code IATA : ANR


EBAW - Anvers / Antwerpen Deurne

DERNIER METAR :
  • 160220Z AUTO 20005KT 9999 // BKN042/// OVC047/// 15/11 Q1018

METARs EXPIRÉS :
  • 160150Z AUTO 18005KT 9999 // OVC045/// 15/12 Q1017
  • 160120Z AUTO 18004KT 9999 // BKN047/// 15/12 Q1017
  • 160050Z AUTO 17004KT 6000 // NCD 12/11 Q1017
  • 160020Z AUTO 14003KT 6000 // NCD 13/13 Q1017
  • 152350Z AUTO 14002KT 5000 // NCD 13/13 Q1017
  • 152320Z AUTO 13002KT 7000 // NCD 14/13 Q1017

TAF TAF EBAW
Valide du 16 à 03h jusqu'au 16 à 12h UTC


160220Z 1603/1612 22006KT 9999 SCT030
Pas de NOTAMs connus pour ce terrain.



MET'MAP, la Météo Aéronautique d'un coup d'oeil ! - Copyright ORBIFLY Décembre 2007 - Disclaimer

ORBIFLY MET'MAP TEAM :

Programmation & Développement : Alexandra Zaïnal
Conception & Développement : Baudouin d'Aumeries
Co-Programmation & Développement : Marc-Olivier Méhu
Soutien technique & logistique : Manuel Goepfert

Contact : metmap@orbifly.com




SOURCES & CREDITS :

   NOAA